sensor_id;sensor_type;location;lat;lon;timestamp;temperature;humidity
5828;DHT22;42583;50.240;8.444;2023-07-02T00:07:16;14.90;99.90
5828;DHT22;42583;50.240;8.444;2023-07-02T00:22:17;14.80;99.90
5828;DHT22;42583;50.240;8.444;2023-07-02T00:37:17;14.70;99.90
5828;DHT22;42583;50.240;8.444;2023-07-02T00:52:18;14.50;99.90
5828;DHT22;42583;50.240;8.444;2023-07-02T01:07:20;14.40;99.90
5828;DHT22;42583;50.240;8.444;2023-07-02T01:22:22;14.40;99.90
5828;DHT22;42583;50.240;8.444;2023-07-02T01:37:23;14.40;99.90
5828;DHT22;42583;50.240;8.444;2023-07-02T01:52:23;14.20;99.90
5828;DHT22;42583;50.240;8.444;2023-07-02T02:07:24;14.20;99.90
5828;DHT22;42583;50.240;8.444;2023-07-02T02:22:26;14.10;99.90
5828;DHT22;42583;50.240;8.444;2023-07-02T02:37:26;13.90;99.90
5828;DHT22;42583;50.240;8.444;2023-07-02T02:52:27;13.70;99.90
5828;DHT22;42583;50.240;8.444;2023-07-02T03:07:27;13.60;99.90
5828;DHT22;42583;50.240;8.444;2023-07-02T03:22:28;13.50;99.90
5828;DHT22;42583;50.240;8.444;2023-07-02T03:37:28;13.30;99.90
5828;DHT22;42583;50.240;8.444;2023-07-02T03:52:29;13.10;99.90
5828;DHT22;42583;50.240;8.444;2023-07-02T04:07:29;12.70;99.90
5828;DHT22;42583;50.240;8.444;2023-07-02T04:22:30;12.40;99.90
5828;DHT22;42583;50.240;8.444;2023-07-02T04:37:31;12.20;99.90
5828;DHT22;42583;50.240;8.444;2023-07-02T04:52:32;12.40;99.90
5828;DHT22;42583;50.240;8.444;2023-07-02T05:07:32;12.60;99.90
5828;DHT22;42583;50.240;8.444;2023-07-02T05:22:33;12.90;99.90
5828;DHT22;42583;50.240;8.444;2023-07-02T05:37:34;13.10;99.90
5828;DHT22;42583;50.240;8.444;2023-07-02T05:52:34;13.30;99.90
5828;DHT22;42583;50.240;8.444;2023-07-02T06:07:35;13.50;99.90
5828;DHT22;42583;50.240;8.444;2023-07-02T06:22:35;14.10;99.90
5828;DHT22;42583;50.240;8.444;2023-07-02T06:37:35;14.50;99.90
5828;DHT22;42583;50.240;8.444;2023-07-02T06:52:36;15.40;99.90
5828;DHT22;42583;50.240;8.444;2023-07-02T07:07:36;15.90;99.90
5828;DHT22;42583;50.240;8.444;2023-07-02T07:22:37;15.80;99.90
5828;DHT22;42583;50.240;8.444;2023-07-02T07:37:38;15.80;99.90
5828;DHT22;42583;50.240;8.444;2023-07-02T07:52:38;16.20;99.90
5828;DHT22;42583;50.240;8.444;2023-07-02T08:07:39;16.80;99.90
5828;DHT22;42583;50.240;8.444;2023-07-02T08:22:40;17.00;99.90
5828;DHT22;42583;50.240;8.444;2023-07-02T08:37:41;17.50;99.90
5828;DHT22;42583;50.240;8.444;2023-07-02T08:52:42;18.00;99.20
5828;DHT22;42583;50.240;8.444;2023-07-02T09:07:46;18.10;94.90
5828;DHT22;42583;50.240;8.444;2023-07-02T09:22:53;18.30;94.70
5828;DHT22;42583;50.240;8.444;2023-07-02T09:37:54;18.90;91.30
5828;DHT22;42583;50.240;8.444;2023-07-02T09:52:54;19.10;91.70
5828;DHT22;42583;50.240;8.444;2023-07-02T10:08:15;20.20;90.50
5828;DHT22;42583;50.240;8.444;2023-07-02T10:23:33;19.80;82.70
5828;DHT22;42583;50.240;8.444;2023-07-02T10:38:35;20.60;77.40
5828;DHT22;42583;50.240;8.444;2023-07-02T10:53:35;21.20;75.70
5828;DHT22;42583;50.240;8.444;2023-07-02T11:08:36;22.10;66.30
5828;DHT22;42583;50.240;8.444;2023-07-02T11:23:36;21.70;64.90
5828;DHT22;42583;50.240;8.444;2023-07-02T11:38:37;21.80;58.50
5828;DHT22;42583;50.240;8.444;2023-07-02T11:53:37;21.70;57.20
5828;DHT22;42583;50.240;8.444;2023-07-02T12:08:39;21.50;57.30
5828;DHT22;42583;50.240;8.444;2023-07-02T12:23:40;21.10;57.00
5828;DHT22;42583;50.240;8.444;2023-07-02T12:38:40;20.90;57.30
5828;DHT22;42583;50.240;8.444;2023-07-02T12:53:41;20.80;57.90
5828;DHT22;42583;50.240;8.444;2023-07-02T13:08:41;21.60;53.50
5828;DHT22;42583;50.240;8.444;2023-07-02T13:23:42;22.50;55.30
5828;DHT22;42583;50.240;8.444;2023-07-02T13:38:43;22.40;51.10
5828;DHT22;42583;50.240;8.444;2023-07-02T13:53:43;21.90;52.30
5828;DHT22;42583;50.240;8.444;2023-07-02T14:08:44;21.80;52.60
5828;DHT22;42583;50.240;8.444;2023-07-02T14:23:44;21.80;52.40
5828;DHT22;42583;50.240;8.444;2023-07-02T14:38:45;21.30;54.40
5828;DHT22;42583;50.240;8.444;2023-07-02T14:53:46;21.80;53.30
5828;DHT22;42583;50.240;8.444;2023-07-02T15:08:46;21.70;51.20
5828;DHT22;42583;50.240;8.444;2023-07-02T15:23:47;20.90;53.10
5828;DHT22;42583;50.240;8.444;2023-07-02T15:38:49;21.30;53.20
5828;DHT22;42583;50.240;8.444;2023-07-02T15:53:50;21.40;53.10
5828;DHT22;42583;50.240;8.444;2023-07-02T16:08:51;21.50;52.80
5828;DHT22;42583;50.240;8.444;2023-07-02T16:23:52;21.00;52.40
5828;DHT22;42583;50.240;8.444;2023-07-02T16:38:52;21.00;53.50
5828;DHT22;42583;50.240;8.444;2023-07-02T16:53:53;20.90;53.10
5828;DHT22;42583;50.240;8.444;2023-07-02T17:24:33;20.30;53.20
5828;DHT22;42583;50.240;8.444;2023-07-02T17:39:37;20.10;54.30
5828;DHT22;42583;50.240;8.444;2023-07-02T17:56:00;20.30;53.80
5828;DHT22;42583;50.240;8.444;2023-07-02T18:11:01;20.10;54.40
5828;DHT22;42583;50.240;8.444;2023-07-02T18:26:01;19.80;55.00
5828;DHT22;42583;50.240;8.444;2023-07-02T18:41:06;19.30;55.50
5828;DHT22;42583;50.240;8.444;2023-07-02T18:56:07;19.00;55.50
5828;DHT22;42583;50.240;8.444;2023-07-02T19:11:08;18.60;56.30
5828;DHT22;42583;50.240;8.444;2023-07-02T19:26:09;18.40;56.70
5828;DHT22;42583;50.240;8.444;2023-07-02T19:41:09;18.00;57.10
5828;DHT22;42583;50.240;8.444;2023-07-02T19:56:10;17.80;57.70
5828;DHT22;42583;50.240;8.444;2023-07-02T20:11:11;17.50;58.50
5828;DHT22;42583;50.240;8.444;2023-07-02T20:26:15;17.20;59.10
5828;DHT22;42583;50.240;8.444;2023-07-02T20:41:16;17.00;59.90
5828;DHT22;42583;50.240;8.444;2023-07-02T20:56:20;16.80;60.80
5828;DHT22;42583;50.240;8.444;2023-07-02T21:11:20;16.70;61.40
5828;DHT22;42583;50.240;8.444;2023-07-02T21:26:21;16.60;62.30
5828;DHT22;42583;50.240;8.444;2023-07-02T21:41:21;16.40;63.00
5828;DHT22;42583;50.240;8.444;2023-07-02T21:56:22;16.30;63.80
5828;DHT22;42583;50.240;8.444;2023-07-02T22:11:22;16.10;64.10
5828;DHT22;42583;50.240;8.444;2023-07-02T22:26:25;16.00;64.70
5828;DHT22;42583;50.240;8.444;2023-07-02T22:41:25;15.80;64.90
5828;DHT22;42583;50.240;8.444;2023-07-02T22:56:26;15.60;65.60
5828;DHT22;42583;50.240;8.444;2023-07-02T23:11:26;15.40;66.50
5828;DHT22;42583;50.240;8.444;2023-07-02T23:26:27;15.20;67.50
5828;DHT22;42583;50.240;8.444;2023-07-02T23:41:31;15.00;68.20
5828;DHT22;42583;50.240;8.444;2023-07-02T23:56:32;14.80;68.90
